Time;durP1;ratioP1;P1;durP2;ratioP2;P2;SDS_P1;SDS_P2;PMS_P1;PMS_P2;Temp;Humidity;BMP_temperature;BMP_pressure;BME280_temperature;BME280_humidity;BME280_pressure;Samples;Min_cycle;Max_cycle;Signal;HPM_P1;HPM_P2
2021/04/02 00:01:39;;;;;;;6.82;2.85;;;;;;;7.17;63.89;99987.81;5042921;28;20048;-78
2021/04/02 00:04:06;;;;;;;4.70;3.15;;;;;;;7.16;64.05;99990.53;5043316;28;20225;-77
2021/04/02 00:06:34;;;;;;;3.47;2.88;;;;;;;7.07;64.03;99994.56;5041709;28;20049;-78
2021/04/02 00:09:00;;;;;;;3.58;2.90;;;;;;;7.07;63.96;99995.41;5042754;28;20063;-78
2021/04/02 00:11:27;;;;;;;4.15;3.28;;;;;;;7.12;63.42;99994.31;5043669;28;20059;-77
2021/04/02 00:13:54;;;;;;;5.35;3.22;;;;;;;7.01;62.86;99995.78;5042726;28;20045;-77
2021/04/02 00:16:20;;;;;;;4.03;2.50;;;;;;;6.98;63.19;99995.13;5042606;28;20056;-76
2021/04/02 00:18:47;;;;;;;4.20;2.50;;;;;;;6.96;63.51;99994.41;5042094;28;20060;-76
2021/04/02 00:21:16;;;;;;;3.67;2.85;;;;;;;6.95;63.77;99998.81;5042843;28;20049;-76
2021/04/02 00:23:44;;;;;;;4.97;3.10;;;;;;;6.96;63.48;99994.41;5042362;28;20084;-78
2021/04/02 00:26:12;;;;;;;2.90;2.63;;;;;;;6.91;63.79;99997.28;5043422;28;20049;-76
2021/04/02 00:28:39;;;;;;;3.10;2.80;;;;;;;6.90;63.46;99995.63;5042198;28;20099;-77
2021/04/02 00:31:06;;;;;;;5.80;3.33;;;;;;;6.84;63.63;100006.47;5044404;28;20053;-77
2021/04/02 00:33:34;;;;;;;4.18;3.13;;;;;;;6.88;63.66;100002.75;5046172;28;20049;-78
2021/04/02 00:36:01;;;;;;;4.88;2.25;;;;;;;7.04;63.26;99997.38;5047310;28;20053;-78
2021/04/02 00:38:29;;;;;;;5.00;2.95;;;;;;;7.12;63.06;99997.75;5046448;28;20053;-77
2021/04/02 00:40:59;;;;;;;4.68;3.20;;;;;;;7.11;62.72;99997.84;5046729;28;20053;-77
2021/04/02 00:43:27;;;;;;;5.03;2.75;;;;;;;7.06;62.79;100001.63;5047223;28;20063;-77
2021/04/02 00:45:54;;;;;;;4.53;2.65;;;;;;;6.97;62.71;99996.94;5045526;28;20137;-76
2021/04/02 00:48:21;;;;;;;4.63;2.22;;;;;;;7.06;62.48;100006.03;5046887;28;20053;-78
2021/04/02 00:50:50;;;;;;;5.20;2.53;;;;;;;7.12;62.41;100015.31;5047664;28;20057;-78
2021/04/02 00:53:18;;;;;;;4.25;2.42;;;;;;;7.11;62.01;100013.59;5047063;28;20049;-77
2021/04/02 00:55:44;;;;;;;3.95;2.28;;;;;;;7.01;61.10;100008.94;5046267;28;20049;-76
2021/04/02 00:58:15;;;;;;;4.03;2.22;;;;;;;6.98;61.25;100008.28;5045509;28;20049;-77
2021/04/02 01:00:42;;;;;;;3.20;1.38;;;;;;;6.99;61.24;100015.22;5046652;28;20049;-78
2021/04/02 01:03:10;;;;;;;4.40;1.55;;;;;;;6.90;61.43;100008.75;5049071;28;20045;-78
2021/04/02 01:05:39;;;;;;;3.53;1.60;;;;;;;6.86;61.32;100009.84;5049161;28;20053;-81
2021/04/02 01:08:07;;;;;;;3.35;2.08;;;;;;;6.79;61.41;100009.41;5048470;28;20074;-78
2021/04/02 01:10:35;;;;;;;4.28;1.40;;;;;;;6.84;61.52;100020.47;5049032;28;20132;-80
2021/04/02 01:13:04;;;;;;;2.83;1.60;;;;;;;6.91;61.23;100022.72;5049795;28;20053;-79
2021/04/02 01:15:34;;;;;;;2.95;1.83;;;;;;;6.79;61.13;100024.28;5046399;28;20064;-77
2021/04/02 01:18:05;;;;;;;2.15;1.95;;;;;;;6.74;61.08;100023.75;5046576;28;20041;-76
2021/04/02 01:20:34;;;;;;;2.40;1.63;;;;;;;6.73;61.29;100025.50;5046063;28;20041;-78
2021/04/02 01:23:04;;;;;;;2.67;1.70;;;;;;;6.81;61.09;100028.53;5046451;28;20045;-79
2021/04/02 01:25:46;;;;;;;3.42;1.58;;;;;;;6.83;61.15;100020.56;5047209;28;20120;-79
2021/04/02 01:28:29;;;;;;;2.70;2.08;;;;;;;6.83;61.43;100028.44;5046019;28;20049;-77
2021/04/02 01:30:59;;;;;;;3.88;2.70;;;;;;;6.76;61.75;100027.13;5045089;28;20502;-77
2021/04/02 01:33:26;;;;;;;3.47;2.67;;;;;;;6.67;61.74;100031.13;5045860;28;20438;-76
2021/04/02 01:35:56;;;;;;;3.10;2.10;;;;;;;6.60;61.93;100033.28;5044567;28;20049;-77
2021/04/02 01:38:28;;;;;;;3.95;2.47;;;;;;;6.58;62.01;100037.78;5045515;28;20137;-77
2021/04/02 01:41:00;;;;;;;2.78;2.20;;;;;;;6.52;61.85;100043.41;5044523;28;20053;-78
2021/04/02 01:43:40;;;;;;;2.75;1.85;;;;;;;6.50;61.65;100034.78;5044039;28;20060;-77
2021/04/02 01:46:08;;;;;;;2.17;1.65;;;;;;;6.44;61.34;100043.00;5045361;28;20057;-77
2021/04/02 01:48:38;;;;;;;2.78;2.00;;;;;;;6.42;61.17;100048.31;5044605;28;20045;-77
2021/04/02 01:51:05;;;;;;;3.35;1.90;;;;;;;6.42;60.87;100052.72;5044950;28;20049;-76
2021/04/02 01:53:35;;;;;;;3.83;1.63;;;;;;;6.36;60.63;100060.97;5044646;28;20075;-77
2021/04/02 01:56:04;;;;;;;4.05;1.70;;;;;;;6.32;60.64;100062.94;5044320;28;20053;-77
2021/04/02 01:58:33;;;;;;;3.72;1.90;;;;;;;6.30;60.43;100067.38;5043051;28;20179;-76
2021/04/02 02:01:01;;;;;;;3.90;2.17;;;;;;;6.27;60.03;100081.53;5045134;28;20053;-76
2021/04/02 02:03:31;;;;;;;4.93;1.52;;;;;;;6.19;60.53;100069.78;5045420;28;20053;-76
2021/04/02 02:05:57;;;;;;;3.05;2.13;;;;;;;6.05;60.44;100081.94;5045200;28;20053;-76
2021/04/02 02:08:26;;;;;;;1.85;1.65;;;;;;;5.88;60.83;100085.44;5045178;28;20447;-75
2021/04/02 02:10:57;;;;;;;2.53;1.85;;;;;;;5.79;61.37;100088.56;5044773;28;20052;-76
2021/04/02 02:13:24;;;;;;;2.90;2.30;;;;;;;5.68;61.42;100094.41;5043593;28;20052;-77
2021/04/02 02:15:53;;;;;;;4.57;2.47;;;;;;;5.60;61.92;100093.13;5045105;28;20517;-76
2021/04/02 02:18:24;;;;;;;4.05;2.70;;;;;;;5.51;61.98;100090.09;5045216;28;20049;-76
2021/04/02 02:20:52;;;;;;;4.47;2.65;;;;;;;5.34;62.62;100098.84;5044861;28;20323;-75
2021/04/02 02:23:19;;;;;;;3.20;2.30;;;;;;;5.21;63.07;100107.44;5045848;28;20044;-75
2021/04/02 02:25:46;;;;;;;3.75;2.30;;;;;;;5.17;63.01;100104.97;5045373;28;20458;-75
2021/04/02 02:28:13;;;;;;;5.10;2.42;;;;;;;5.13;62.90;100113.94;5044497;28;20055;-76
2021/04/02 02:30:40;;;;;;;4.55;2.83;;;;;;;5.06;63.08;100116.94;5045609;28;20394;-76
2021/04/02 02:33:06;;;;;;;3.00;2.50;;;;;;;4.96;63.16;100113.94;5047071;28;20045;-76
2021/04/02 02:35:33;;;;;;;3.13;2.70;;;;;;;4.92;63.25;100125.50;5044932;28;20115;-72
2021/04/02 02:38:01;;;;;;;3.88;2.75;;;;;;;4.83;63.40;100126.81;5046577;28;20469;-77
2021/04/02 02:40:32;;;;;;;5.18;3.55;;;;;;;4.78;63.78;100129.66;5044822;28;20188;-74
2021/04/02 02:42:59;;;;;;;5.57;2.97;;;;;;;4.75;63.70;100134.19;5046039;28;20056;-77
2021/04/02 02:45:26;;;;;;;4.75;2.83;;;;;;;4.68;64.04;100136.28;5045515;28;20098;-76
2021/04/02 02:47:53;;;;;;;4.63;2.60;;;;;;;4.65;64.00;100136.44;5045654;28;20052;-76
2021/04/02 02:50:21;;;;;;;4.80;2.92;;;;;;;4.58;64.00;100133.28;5046376;28;20045;-76
2021/04/02 02:52:49;;;;;;;5.95;2.92;;;;;;;4.60;64.00;100133.19;5046090;28;20110;-78
2021/04/02 02:55:19;;;;;;;5.10;3.35;;;;;;;4.62;64.08;100133.13;5045861;28;20114;-75
2021/04/02 02:57:49;;;;;;;4.05;2.70;;;;;;;4.62;64.15;100130.50;5048804;28;20053;-75
2021/04/02 03:00:20;;;;;;;3.92;2.90;;;;;;;4.62;64.17;100133.13;5047368;28;20077;-76
2021/04/02 03:02:50;;;;;;;3.17;2.60;;;;;;;4.65;64.25;100146.91;5043689;28;20055;-77
2021/04/02 03:05:19;;;;;;;4.18;2.88;;;;;;;4.81;63.96;100133.03;5045781;28;20053;-75
2021/04/02 03:07:49;;;;;;;6.35;3.78;;;;;;;4.92;63.45;100131.59;5044522;28;20639;-74
2021/04/02 03:10:19;;;;;;;4.75;3.60;;;;;;;4.91;63.74;100137.72;5044185;28;20052;-72
2021/04/02 03:12:46;;;;;;;5.43;2.97;;;;;;;4.92;63.63;100135.97;5045592;28;20059;-76
2021/04/02 03:15:16;;;;;;;4.63;3.13;;;;;;;4.97;63.61;100144.44;5046031;28;20041;-76
2021/04/02 03:17:43;;;;;;;4.95;3.03;;;;;;;5.00;63.55;100140.81;5044431;28;20040;-75
2021/04/02 03:20:12;;;;;;;5.50;4.63;;;;;;;5.05;63.29;100133.56;5045275;28;20106;-75
2021/04/02 03:22:39;;;;;;;5.43;3.45;;;;;;;5.03;63.29;100133.66;5043601;28;20047;-74
2021/04/02 03:25:09;;;;;;;7.45;3.50;;;;;;;5.21;62.90;100125.78;5045774;28;20064;-75
2021/04/02 03:27:39;;;;;;;5.63;3.30;;;;;;;5.26;62.83;100131.63;5043625;28;20051;-76
2021/04/02 03:30:08;;;;;;;7.43;3.58;;;;;;;5.36;62.74;100136.28;5046418;28;20053;-77
2021/04/02 03:32:38;;;;;;;5.78;2.80;;;;;;;5.42;62.59;100134.25;5045362;28;21246;-77
2021/04/02 03:35:07;;;;;;;7.22;4.00;;;;;;;5.35;62.44;100139.84;5044749;28;20680;-76
2021/04/02 03:37:35;;;;;;;7.80;5.03;;;;;;;5.26;62.68;100142.94;5044561;28;20418;-77
2021/04/02 03:40:04;;;;;;;6.88;4.30;;;;;;;5.34;62.32;100145.16;5045188;28;20059;-76
2021/04/02 03:42:32;;;;;;;6.20;3.47;;;;;;;5.42;62.11;100140.38;5048109;28;20123;-77
2021/04/02 03:45:01;;;;;;;6.25;3.88;;;;;;;5.37;62.44;100145.00;5046588;28;20053;-76
2021/04/02 03:47:28;;;;;;;5.63;5.10;;;;;;;5.24;62.45;100147.41;5045244;28;20045;-77
2021/04/02 03:49:56;;;;;;;5.82;2.83;;;;;;;5.23;62.37;100148.31;5044652;28;20056;-76
2021/04/02 03:52:30;;;;;;;5.10;3.28;;;;;;;5.32;62.33;100147.00;5046360;28;20043;-76
2021/04/02 03:54:57;;;;;;;5.90;3.22;;;;;;;5.29;62.23;100149.78;5046261;28;20107;-77
2021/04/02 03:57:28;;;;;;;7.30;5.28;;;;;;;5.28;62.35;100148.09;5044981;28;20056;-75
2021/04/02 04:00:04;;;;;;;5.82;2.78;;;;;;;5.25;62.41;100140.41;5041398;28;20584;-77
2021/04/02 04:02:34;;;;;;;3.53;3.22;;;;;;;5.27;62.21;100131.53;5044817;28;20057;-78
2021/04/02 04:05:02;;;;;;;3.63;3.08;;;;;;;5.21;62.20;100121.38;5050466;28;20631;-76
2021/04/02 04:07:30;;;;;;;5.65;2.97;;;;;;;5.12;62.51;100127.94;5047900;28;20129;-77
2021/04/02 04:09:59;;;;;;;4.68;3.03;;;;;;;5.05;62.70;100128.34;5049436;28;20052;-76
2021/04/02 04:12:27;;;;;;;9.20;3.92;;;;;;;4.97;62.85;100113.88;5047168;28;20045;-78
2021/04/02 04:14:56;;;;;;;6.07;4.00;;;;;;;4.95;63.01;100120.09;5046293;28;20045;-77
2021/04/02 04:17:24;;;;;;;6.13;4.22;;;;;;;4.92;62.80;100120.28;5047530;28;20461;-77
2021/04/02 04:19:52;;;;;;;6.10;3.58;;;;;;;4.94;63.03;100113.19;5046447;28;20562;-78
2021/04/02 04:22:23;;;;;;;4.80;3.42;;;;;;;4.96;62.86;100129.66;5047550;28;20422;-76
2021/04/02 04:24:49;;;;;;;8.73;4.55;;;;;;;5.01;62.81;100125.03;5058954;28;20029;-77
2021/04/02 04:27:17;;;;;;;8.50;5.38;;;;;;;5.11;62.60;100121.03;5065189;28;20070;-77
2021/04/02 04:29:50;;;;;;;6.60;4.00;;;;;;;5.17;62.43;100127.72;5060892;28;20052;-78
2021/04/02 04:32:18;;;;;;;11.13;4.35;;;;;;;5.19;62.49;100130.25;5062651;28;20079;-76
2021/04/02 04:34:49;;;;;;;5.60;3.45;;;;;;;5.15;62.72;100125.16;5060620;28;20041;-76
2021/04/02 04:37:18;;;;;;;5.70;3.38;;;;;;;5.12;62.43;100127.09;5054828;28;20057;-76
2021/04/02 04:39:46;;;;;;;6.65;4.30;;;;;;;5.01;62.83;100132.88;5050286;28;20067;-76
2021/04/02 04:42:15;;;;;;;8.18;6.20;;;;;;;4.86;63.37;100131.91;5047338;28;20088;-76
2021/04/02 04:44:44;;;;;;;6.38;3.85;;;;;;;4.88;63.20;100137.03;5048753;28;20045;-76
2021/04/02 04:47:10;;;;;;;4.80;3.67;;;;;;;4.94;63.06;100144.59;5047902;28;20563;-77
2021/04/02 04:49:36;;;;;;;7.75;4.43;;;;;;;4.96;62.96;100137.50;5048078;28;20053;-77
2021/04/02 04:52:06;;;;;;;7.55;5.18;;;;;;;4.95;63.01;100136.66;5048957;28;20075;-75
2021/04/02 04:54:34;;;;;;;6.97;4.70;;;;;;;4.96;62.92;100134.88;5047244;28;20056;-77
2021/04/02 04:57:02;;;;;;;9.20;5.30;;;;;;;5.03;62.96;100136.28;5047580;28;20465;-76
2021/04/02 04:59:31;;;;;;;8.13;5.72;;;;;;;5.24;62.60;100142.19;5045113;28;20099;-77
2021/04/02 05:01:58;;;;;;;7.28;5.25;;;;;;;5.37;62.50;100142.38;5047160;28;20045;-76
2021/04/02 05:04:27;;;;;;;6.10;4.50;;;;;;;5.55;62.00;100138.78;5046764;28;20559;-77
2021/04/02 05:06:58;;;;;;;8.05;6.50;;;;;;;5.55;61.57;100151.88;5046143;28;20180;-76
2021/04/02 05:09:28;;;;;;;10.57;6.68;;;;;;;5.60;61.52;100159.50;5046061;28;20049;-76
2021/04/02 05:11:56;;;;;;;8.23;6.50;;;;;;;5.53;61.43;100161.59;5046561;28;20060;-75
2021/04/02 05:14:23;;;;;;;9.15;6.90;;;;;;;5.46;61.69;100154.16;5044916;28;20053;-76
2021/04/02 05:16:51;;;;;;;9.55;6.70;;;;;;;5.30;62.02;100167.19;5044575;28;20061;-75
2021/04/02 05:19:19;;;;;;;9.45;6.65;;;;;;;5.30;61.92;100170.66;5045437;28;20048;-71
2021/04/02 05:21:46;;;;;;;9.75;7.80;;;;;;;5.28;62.17;100169.06;5045519;28;20135;-76
2021/04/02 05:24:13;;;;;;;8.20;6.60;;;;;;;5.26;61.95;100176.13;5045196;28;20057;-73
2021/04/02 05:26:40;;;;;;;11.45;8.00;;;;;;;5.27;62.28;100183.06;5043692;28;20049;-71
2021/04/02 05:29:07;;;;;;;11.20;8.85;;;;;;;5.27;62.60;100177.81;5041867;28;20581;-71
2021/04/02 05:31:34;;;;;;;18.50;12.38;;;;;;;5.20;62.69;100186.91;5044390;28;20044;-70
2021/04/02 05:34:00;;;;;;;15.73;10.23;;;;;;;5.15;62.98;100188.00;5043299;28;20049;-71
2021/04/02 05:36:27;;;;;;;11.82;9.35;;;;;;;5.12;63.14;100193.38;5043149;28;20503;-74
2021/04/02 05:38:53;;;;;;;12.88;9.68;;;;;;;5.17;63.20;100191.38;5043603;28;20049;-75
2021/04/02 05:41:25;;;;;;;15.55;10.00;;;;;;;5.19;62.88;100196.56;5045287;28;20045;-73
2021/04/02 05:43:56;;;;;;;18.60;12.82;;;;;;;5.25;62.84;100195.38;5043055;28;20041;-74
2021/04/02 05:46:24;;;;;;;17.85;14.93;;;;;;;5.23;62.74;100190.22;5043634;28;20045;-74
2021/04/02 05:49:00;;;;;;;19.27;15.80;;;;;;;5.19;62.82;100193.94;5044593;28;20808;-75
2021/04/02 05:51:27;;;;;;;17.00;12.20;;;;;;;5.37;62.46;100192.13;5043993;28;20052;-76
2021/04/02 05:53:55;;;;;;;20.02;15.73;;;;;;;5.35;62.18;100176.50;5043405;28;20053;-76
2021/04/02 05:56:22;;;;;;;20.77;13.93;;;;;;;5.40;62.08;100180.63;5041902;28;20045;-76
2021/04/02 05:58:50;;;;;;;23.88;17.00;;;;;;;5.38;62.06;100180.72;5042608;28;20049;-76
2021/04/02 06:01:17;;;;;;;21.85;14.10;;;;;;;5.39;61.63;100187.66;5042709;28;20755;-76
2021/04/02 06:03:44;;;;;;;15.93;14.23;;;;;;;5.44;61.25;100185.66;5043429;28;20045;-76
2021/04/02 06:06:13;;;;;;;16.40;10.65;;;;;;;5.44;61.17;100195.25;5042544;28;20081;-79
2021/04/02 06:08:43;;;;;;;16.17;12.05;;;;;;;5.46;60.89;100194.28;5047243;28;20183;-77
2021/04/02 06:11:09;;;;;;;15.30;11.80;;;;;;;5.46;61.12;100194.28;5046353;28;20049;-73
2021/04/02 06:13:36;;;;;;;14.77;10.55;;;;;;;5.49;61.31;100188.00;5042513;28;20049;-75
2021/04/02 06:16:03;;;;;;;12.73;8.50;;;;;;;5.72;61.02;100186.81;5044633;28;20051;-77
2021/04/02 06:18:30;;;;;;;11.95;10.00;;;;;;;5.79;60.62;100188.16;5042111;28;20143;-76
2021/04/02 06:20:58;;;;;;;13.00;9.77;;;;;;;5.91;60.63;100195.38;5041574;28;20057;-75
2021/04/02 06:23:27;;;;;;;12.32;8.85;;;;;;;6.06;59.74;100191.09;5041923;28;20080;-77
2021/04/02 06:25:56;;;;;;;10.05;8.73;;;;;;;5.95;59.50;100206.53;5040533;28;20049;-75
2021/04/02 06:28:24;;;;;;;10.65;9.05;;;;;;;5.86;59.69;100197.41;5041386;28;20048;-76
2021/04/02 06:30:57;;;;;;;14.77;9.90;;;;;;;5.94;59.67;100187.34;5041619;28;20068;-77
2021/04/02 06:33:31;;;;;;;15.38;9.35;;;;;;;6.28;59.22;100193.41;5041808;28;20045;-76
2021/04/02 06:35:57;;;;;;;12.80;10.13;;;;;;;6.43;58.98;100189.06;5041892;28;20052;-73
2021/04/02 06:38:29;;;;;;;13.27;9.90;;;;;;;6.54;59.04;100192.88;5041446;28;20459;-76
2021/04/02 06:40:59;;;;;;;15.00;9.48;;;;;;;6.45;58.53;100199.47;5039741;28;20049;-74
2021/04/02 06:43:34;;;;;;;8.95;6.78;;;;;;;6.60;58.04;100193.34;5040165;28;20110;-74
2021/04/02 06:46:04;;;;;;;11.90;9.07;;;;;;;6.89;57.46;100181.16;5041677;28;20079;-75
2021/04/02 06:48:32;;;;;;;10.82;8.55;;;;;;;6.94;57.29;100185.31;5037139;28;20503;-74
2021/04/02 06:50:58;;;;;;;12.07;9.50;;;;;;;7.04;57.23;100186.44;5037630;28;20121;-73
2021/04/02 06:53:26;;;;;;;13.90;10.60;;;;;;;7.01;57.03;100191.91;5038069;28;20041;-74
2021/04/02 06:55:55;;;;;;;15.88;10.82;;;;;;;6.76;56.98;100184.63;5041193;28;20473;-79
2021/04/02 06:58:23;;;;;;;11.85;8.90;;;;;;;6.73;57.35;100182.16;5037368;28;20052;-73
2021/04/02 07:00:52;;;;;;;11.95;9.90;;;;;;;6.84;56.81;100195.50;5038384;28;20527;-77
2021/04/02 07:03:19;;;;;;;11.10;9.27;;;;;;;6.84;56.82;100195.50;5032224;28;20189;-71
2021/04/02 07:05:49;;;;;;;11.63;9.32;;;;;;;6.69;57.35;100195.44;5034848;28;20060;-71
2021/04/02 07:08:19;;;;;;;11.50;8.93;;;;;;;6.75;56.88;100201.28;5037954;28;20048;-72
2021/04/02 07:10:46;;;;;;;11.38;8.77;;;;;;;6.81;56.86;100199.16;5039247;28;20151;-71
2021/04/02 07:13:13;;;;;;;10.48;9.18;;;;;;;6.81;56.93;100201.78;5036605;28;20048;-78
2021/04/02 07:15:40;;;;;;;9.95;8.50;;;;;;;6.88;56.11;100207.53;5039021;28;20057;-75
2021/04/02 07:18:12;;;;;;;12.65;10.15;;;;;;;6.73;56.32;100209.25;5037263;28;20136;-71
2021/04/02 07:20:38;;;;;;;12.25;8.02;;;;;;;6.93;56.64;100215.97;5037376;28;20080;-77
2021/04/02 07:23:06;;;;;;;11.77;9.20;;;;;;;7.22;55.92;100213.41;5036696;28;20409;-70
2021/04/02 07:25:33;;;;;;;9.98;7.80;;;;;;;7.14;55.70;100205.16;5037393;28;20049;-74
2021/04/02 07:28:00;;;;;;;12.52;10.02;;;;;;;7.31;55.49;100205.00;5033752;28;20044;-71
2021/04/02 07:30:29;;;;;;;10.75;8.77;;;;;;;7.28;55.26;100210.44;5034415;28;20643;-73
2021/04/02 07:32:59;;;;;;;12.32;10.60;;;;;;;6.98;56.12;100218.34;5036822;28;20049;-74
2021/04/02 07:35:27;;;;;;;10.68;9.52;;;;;;;6.96;56.34;100215.78;5035507;28;20732;-73
2021/04/02 07:37:55;;;;;;;15.00;11.20;;;;;;;7.21;56.07;100224.88;5037227;28;20057;-74
2021/04/02 07:40:25;;;;;;;11.65;10.30;;;;;;;7.23;55.27;100217.75;5036757;28;20481;-74
2021/04/02 07:42:54;;;;;;;11.75;8.63;;;;;;;7.10;55.32;100216.78;5038930;28;20045;-74
2021/04/02 07:45:23;;;;;;;10.02;8.15;;;;;;;7.31;55.18;100220.78;5035797;28;20045;-74
2021/04/02 07:47:55;;;;;;;12.50;9.00;;;;;;;7.75;54.82;100217.22;5034572;28;20124;-78
2021/04/02 07:50:41;;;;;;;15.50;9.55;;;;;;;7.77;54.63;100217.16;5035592;28;20099;-76
2021/04/02 07:53:17;;;;;;;11.65;9.27;;;;;;;7.61;54.72;100222.47;5036154;28;20049;-76
2021/04/02 07:55:56;;;;;;;15.95;9.02;;;;;;;7.49;54.93;100217.97;5035614;28;20056;-77
2021/04/02 07:58:25;;;;;;;11.68;9.48;;;;;;;7.38;54.92;100216.84;5033317;28;20543;-76
2021/04/02 08:00:57;;;;;;;14.98;11.00;;;;;;;7.58;54.80;100220.03;5038380;28;20059;-75
2021/04/02 08:03:25;;;;;;;14.73;10.75;;;;;;;7.84;54.24;100216.66;5037318;28;20187;-76
2021/04/02 08:06:05;;;;;;;10.85;9.40;;;;;;;8.33;53.26;100209.28;5034950;28;20048;-76
2021/04/02 08:08:44;;;;;;;13.77;11.60;;;;;;;8.25;52.89;100217.66;5038907;28;20168;-73
2021/04/02 08:11:16;;;;;;;15.75;12.48;;;;;;;8.22;53.17;100215.22;5037387;28;20063;-77
2021/04/02 08:13:49;;;;;;;13.63;11.73;;;;;;;8.40;52.43;100208.78;5036356;28;20132;-80
2021/04/02 08:16:50;;;;;;;14.18;11.48;;;;;;;8.47;52.52;100201.38;5035044;28;20083;-74
2021/04/02 08:19:24;;;;;;;16.95;12.15;;;;;;;8.42;52.33;100208.72;5036515;28;20040;-74
2021/04/02 08:21:53;;;;;;;14.90;13.27;;;;;;;8.42;52.06;100204.28;5035078;28;20048;-71
2021/04/02 08:24:22;;;;;;;13.85;12.15;;;;;;;8.55;51.65;100214.88;5035700;28;20045;-75
2021/04/02 08:26:49;;;;;;;16.23;14.52;;;;;;;8.85;51.17;100205.91;5037331;28;20150;-73
2021/04/02 08:29:17;;;;;;;14.88;13.27;;;;;;;8.56;50.98;100206.03;5034711;28;20060;-72
2021/04/02 08:31:47;;;;;;;21.20;14.25;;;;;;;8.41;52.02;100191.22;5035586;28;20510;-71
2021/04/02 08:34:19;;;;;;;13.48;11.48;;;;;;;8.53;51.56;100190.41;5036191;28;20045;-71
2021/04/02 08:36:48;;;;;;;14.73;12.85;;;;;;;8.47;51.23;100190.84;5035229;28;20045;-73
2021/04/02 08:39:17;;;;;;;13.35;11.73;;;;;;;8.42;51.06;100185.84;5033261;28;20048;-70
2021/04/02 08:41:44;;;;;;;12.80;11.50;;;;;;;8.29;51.53;100182.31;5034320;28;20463;-70
2021/04/02 08:44:12;;;;;;;14.63;12.77;;;;;;;8.71;51.09;100184.91;5034036;28;20037;-70
2021/04/02 08:46:42;;;;;;;14.13;12.75;;;;;;;8.93;50.16;100190.47;5036465;28;20044;-72
2021/04/02 08:49:09;;;;;;;12.93;11.50;;;;;;;8.72;50.03;100184.81;5034113;28;20049;-72
2021/04/02 08:51:37;;;;;;;15.45;13.07;;;;;;;8.39;50.99;100193.06;5036150;28;20044;-70
2021/04/02 08:54:05;;;;;;;12.18;10.50;;;;;;;8.56;50.21;100187.59;5040171;28;20044;-71
2021/04/02 08:56:35;;;;;;;12.75;11.43;;;;;;;9.08;49.37;100180.66;5038939;28;20628;-72
2021/04/02 08:59:06;;;;;;;18.30;16.60;;;;;;;9.56;49.07;100180.91;5054104;28;20067;-72
2021/04/02 09:01:36;;;;;;;20.48;18.40;;;;;;;8.92;49.58;100190.56;5059296;28;20049;-72
2021/04/02 09:04:03;;;;;;;17.23;13.95;;;;;;;8.66;50.11;100179.09;5060267;28;20059;-72
2021/04/02 09:06:29;;;;;;;19.30;17.27;;;;;;;8.91;49.29;100183.59;5060350;28;20114;-70
2021/04/02 09:08:56;;;;;;;19.88;13.93;;;;;;;9.48;48.54;100177.94;5064313;28;20159;-74
2021/04/02 09:11:22;;;;;;;25.27;22.67;;;;;;;9.89;47.94;100178.66;5063707;28;20059;-70
2021/04/02 09:13:53;;;;;;;20.75;18.65;;;;;;;9.73;48.40;100168.34;5062499;28;20057;-70
2021/04/02 09:16:21;;;;;;;25.27;22.73;;;;;;;9.34;48.55;100170.97;5052163;28;20048;-71
2021/04/02 09:19:03;;;;;;;25.15;22.52;;;;;;;9.17;49.08;100171.31;5050113;28;20049;-71
2021/04/02 09:21:30;;;;;;;23.00;20.58;;;;;;;9.31;47.94;100176.47;5048102;28;20044;-70
2021/04/02 09:23:57;;;;;;;20.13;16.88;;;;;;;9.91;47.12;100161.75;5051334;28;20596;-71
2021/04/02 09:26:24;;;;;;;17.10;15.27;;;;;;;10.44;45.29;100172.06;5048932;28;20102;-72
2021/04/02 09:28:56;;;;;;;18.70;16.90;;;;;;;10.31;46.28;100171.25;5040408;28;20045;-76
2021/04/02 09:31:25;;;;;;;13.57;12.32;;;;;;;9.98;45.92;100162.16;5038408;28;20044;-72
2021/04/02 09:33:54;;;;;;;13.88;12.52;;;;;;;9.75;45.27;100169.91;5038732;28;20117;-72
2021/04/02 09:36:24;;;;;;;13.57;12.38;;;;;;;10.03;45.00;100156.53;5040488;28;20045;-70
2021/04/02 09:38:50;;;;;;;11.88;10.77;;;;;;;10.13;45.66;100161.03;5038062;28;20052;-73
2021/04/02 09:41:23;;;;;;;10.63;9.50;;;;;;;10.13;45.35;100153.13;5038052;28;20045;-72
2021/04/02 09:43:51;;;;;;;14.40;9.20;;;;;;;10.11;44.75;100156.84;5035916;28;20579;-71
2021/04/02 09:46:29;;;;;;;9.48;8.25;;;;;;;10.10;45.00;100148.09;5038528;28;20045;-74
2021/04/02 09:49:04;;;;;;;9.88;8.88;;;;;;;10.29;45.35;100142.31;5036437;28;20616;-73
2021/04/02 09:51:32;;;;;;;9.68;8.60;;;;;;;10.41;45.46;100139.78;5039189;28;20056;-72
2021/04/02 09:53:59;;;;;;;8.35;7.53;;;;;;;10.04;43.89;100145.88;5038611;28;20045;-71
2021/04/02 09:56:25;;;;;;;8.63;7.35;;;;;;;10.02;44.37;100141.69;5038218;28;20110;-74
2021/04/02 09:58:52;;;;;;;7.07;6.38;;;;;;;10.27;44.06;100128.38;5038030;28;20051;-74
2021/04/02 10:01:21;;;;;;;8.40;7.60;;;;;;;10.55;43.60;100130.81;5036403;28;20072;-73
2021/04/02 10:03:50;;;;;;;8.25;7.45;;;;;;;10.47;43.84;100120.81;5040644;28;20044;-73
2021/04/02 10:06:17;;;;;;;6.60;5.93;;;;;;;10.21;42.85;100122.69;5043187;28;20045;-72
2021/04/02 10:08:44;;;;;;;6.10;5.50;;;;;;;9.87;43.43;100125.16;5038960;28;20631;-75
2021/04/02 10:11:11;;;;;;;7.25;5.90;;;;;;;9.69;44.19;100128.16;5041647;28;20494;-76
2021/04/02 10:13:37;;;;;;;6.93;6.22;;;;;;;9.88;44.31;100127.66;5041431;28;20052;-72
2021/04/02 10:16:05;;;;;;;6.70;5.07;;;;;;;10.25;43.89;100124.19;5040490;28;20041;-73
2021/04/02 10:18:31;;;;;;;6.32;4.97;;;;;;;10.57;42.41;100107.75;5041314;28;20049;-73
2021/04/02 10:20:57;;;;;;;5.10;4.03;;;;;;;10.40;42.03;100107.22;5040048;28;20098;-74
2021/04/02 10:23:24;;;;;;;5.20;3.50;;;;;;;10.29;41.85;100109.78;5039270;28;20055;-75
2021/04/02 10:25:51;;;;;;;8.13;4.47;;;;;;;10.33;41.79;100103.34;5038736;28;20045;-74
2021/04/02 10:28:18;;;;;;;4.35;3.95;;;;;;;10.48;41.85;100104.88;5037619;28;20057;-77
2021/04/02 10:30:44;;;;;;;5.53;3.80;;;;;;;10.94;41.53;100100.53;5039297;28;20048;-82
2021/04/02 10:33:11;;;;;;;4.20;3.05;;;;;;;11.20;41.77;100095.91;5038684;28;20754;-77
2021/04/02 10:35:37;;;;;;;8.35;6.00;;;;;;;11.12;40.80;100100.94;5038342;28;20057;-75
2021/04/02 10:38:04;;;;;;;8.82;5.75;;;;;;;10.87;41.03;100094.88;5038596;28;20059;-76
2021/04/02 10:40:31;;;;;;;4.18;3.08;;;;;;;10.81;39.93;100097.16;5040600;28;20377;-79
2021/04/02 10:42:58;;;;;;;18.98;7.75;;;;;;;10.69;40.99;100099.75;5041895;28;20041;-76
2021/04/02 10:45:24;;;;;;;24.88;10.68;;;;;;;10.75;41.63;100082.63;5039590;28;20055;-76
2021/04/02 10:47:51;;;;;;;4.80;4.10;;;;;;;10.83;41.42;100084.69;5038429;28;20052;-76
2021/04/02 10:50:18;;;;;;;4.47;2.72;;;;;;;10.89;42.00;100092.97;5038309;28;20049;-77
2021/04/02 10:52:45;;;;;;;4.00;2.78;;;;;;;10.94;41.31;100081.22;5039386;28;20579;-76
2021/04/02 10:55:13;;;;;;;12.90;7.00;;;;;;;10.91;40.52;100076.97;5040509;28;20073;-76
2021/04/02 10:57:40;;;;;;;9.60;4.72;;;;;;;10.85;40.21;100088.88;5037720;28;20068;-76
2021/04/02 11:00:11;;;;;;;6.75;4.80;;;;;;;10.80;39.61;100072.53;5035491;28;20075;-81
2021/04/02 11:02:38;;;;;;;5.05;3.40;;;;;;;10.87;40.05;100073.75;5038207;28;20085;-76
2021/04/02 11:05:06;;;;;;;8.25;2.85;;;;;;;11.26;40.06;100068.13;5037780;28;20053;-78
2021/04/02 11:07:33;;;;;;;3.92;3.47;;;;;;;11.24;37.67;100065.63;5035774;28;20056;-74
2021/04/02 11:09:59;;;;;;;4.00;2.90;;;;;;;11.10;38.13;100073.78;5037745;28;20162;-76
2021/04/02 11:12:29;;;;;;;4.32;3.42;;;;;;;10.86;38.43;100069.44;5039153;28;20072;-75
2021/04/02 11:14:56;;;;;;;8.40;5.22;;;;;;;10.74;39.38;100067.72;5042191;28;20166;-78
2021/04/02 11:17:24;;;;;;;14.48;5.13;;;;;;;10.80;39.93;100066.41;5042470;28;20053;-77
2021/04/02 11:19:52;;;;;;;4.00;3.60;;;;;;;11.10;39.21;100058.75;5039423;28;20049;-77
2021/04/02 11:22:18;;;;;;;8.73;5.35;;;;;;;11.38;39.42;100058.38;5039070;28;20421;-77
2021/04/02 11:24:46;;;;;;;8.57;5.35;;;;;;;11.30;39.07;100061.63;5042195;28;20501;-79
2021/04/02 11:27:13;;;;;;;8.52;5.55;;;;;;;11.35;39.57;100054.19;5039460;28;20057;-80
2021/04/02 11:29:40;;;;;;;9.52;5.60;;;;;;;11.63;39.36;100055.50;5034794;28;20045;-77
2021/04/02 11:32:08;;;;;;;8.27;6.13;;;;;;;11.68;39.08;100047.16;5039233;28;20468;-75
2021/04/02 11:34:36;;;;;;;9.40;7.70;;;;;;;11.48;39.76;100054.06;5038397;28;20052;-77